createdAt,value
2022-09-09T00:00:59.086Z,28.7
2022-09-09T00:02:01.305Z,28.7
2022-09-09T00:03:04.595Z,28.7
2022-09-09T00:04:07.134Z,28.8
2022-09-09T00:05:09.606Z,28.8
2022-09-09T00:06:12.074Z,28.8
2022-09-09T00:07:14.548Z,28.8
2022-09-09T00:08:16.767Z,28.8
2022-09-09T00:09:19.012Z,28.8
2022-09-09T00:10:21.212Z,28.8
2022-09-09T00:11:23.135Z,28.8
2022-09-09T00:12:29.609Z,28.8
2022-09-09T00:13:32.102Z,28.8
2022-09-09T00:14:34.605Z,28.8
2022-09-09T00:15:36.993Z,28.8
2022-09-09T00:16:39.318Z,28.8
2022-09-09T00:17:41.832Z,28.8
2022-09-09T00:18:44.350Z,28.8
2022-09-09T00:19:46.567Z,28.8
2022-09-09T00:20:48.787Z,28.8
2022-09-09T00:21:50.724Z,28.9
2022-09-09T00:22:52.682Z,28.9
2022-09-09T00:23:55.166Z,28.9
2022-09-09T00:24:57.670Z,28.9
2022-09-09T00:26:00.164Z,28.9
2022-09-09T00:27:02.349Z,28.9
2022-09-09T00:28:04.851Z,28.9
2022-09-09T00:29:07.062Z,28.9
2022-09-09T00:30:09.030Z,28.9
2022-09-09T00:31:11.640Z,28.9
2022-09-09T00:32:13.439Z,28.8
2022-09-09T00:33:15.868Z,28.8
2022-09-09T00:34:17.818Z,28.8
2022-09-09T00:35:19.728Z,28.8
2022-09-09T00:36:21.922Z,28.8
2022-09-09T00:37:24.131Z,28.8
2022-09-09T00:38:26.345Z,28.8
2022-09-09T00:39:28.558Z,28.8
2022-09-09T00:40:30.873Z,28.7
2022-09-09T00:41:33.382Z,28.7
2022-09-09T00:42:35.282Z,28.7
2022-09-09T00:43:37.501Z,28.7
2022-09-09T00:44:40.019Z,28.7
2022-09-09T00:45:42.561Z,28.7
2022-09-09T00:46:45.168Z,28.7
2022-09-09T00:47:47.374Z,28.7
2022-09-09T00:48:49.600Z,28.6
2022-09-09T00:49:51.832Z,28.6
2022-09-09T00:50:54.308Z,28.6
2022-09-09T00:51:56.787Z,28.6
2022-09-09T00:52:59.267Z,28.6
2022-09-09T00:54:01.747Z,28.6
2022-09-09T00:55:03.662Z,28.6
2022-09-09T00:56:06.163Z,28.6
2022-09-09T00:57:08.083Z,28.6
2022-09-09T00:58:10.558Z,28.6
2022-09-09T00:59:13.029Z,28.6
2022-09-09T01:00:15.522Z,28.6
2022-09-09T01:01:17.683Z,28.6
2022-09-09T01:02:20.526Z,28.6
2022-09-09T01:03:23.208Z,28.6
2022-09-09T01:04:25.695Z,28.5
2022-09-09T01:05:27.645Z,28.6
2022-09-09T01:06:29.848Z,28.5
2022-09-09T01:07:32.320Z,28.5
2022-09-09T01:08:35.035Z,28.5
2022-09-09T01:09:37.888Z,28.5
2022-09-09T01:10:40.077Z,28.5
2022-09-09T01:11:42.569Z,28.5
2022-09-09T01:12:45.108Z,28.5
2022-09-09T01:13:47.611Z,28.5
2022-09-09T01:14:49.533Z,28.5
2022-09-09T01:15:52.046Z,28.5
2022-09-09T01:16:54.813Z,28.5
2022-09-09T01:17:57.477Z,28.5
2022-09-09T01:18:59.964Z,28.5
2022-09-09T01:20:02.170Z,28.5
2022-09-09T01:21:04.695Z,28.5
2022-09-09T01:22:07.181Z,28.5
2022-09-09T01:23:09.101Z,28.5
2022-09-09T01:24:11.573Z,28.5
2022-09-09T01:25:14.051Z,28.5
2022-09-09T01:26:15.980Z,28.5
2022-09-09T01:27:18.463Z,28.5
2022-09-09T01:28:20.674Z,28.5
2022-09-09T01:29:23.149Z,28.5
2022-09-09T01:30:25.347Z,28.5
2022-09-09T01:31:27.675Z,28.5
2022-09-09T01:32:30.243Z,28.5
2022-09-09T01:33:32.705Z,28.5
2022-09-09T01:34:35.203Z,28.5
2022-09-09T01:35:37.683Z,28.5
2022-09-09T01:36:40.197Z,28.5
2022-09-09T01:37:42.674Z,28.5
2022-09-09T01:38:45.145Z,28.5
2022-09-09T01:39:47.560Z,28.5
2022-09-09T01:40:50.170Z,28.5
2022-09-09T01:41:52.644Z,28.5
2022-09-09T01:42:55.144Z,28.5
2022-09-09T01:43:57.316Z,28.5
2022-09-09T01:44:59.512Z,28.5
2022-09-09T01:46:02.356Z,28.5
2022-09-09T01:47:05.125Z,28.5
2022-09-09T01:48:07.647Z,28.5
2022-09-09T01:49:09.859Z,28.5
2022-09-09T01:50:11.761Z,28.5
2022-09-09T01:51:14.253Z,28.5
2022-09-09T01:52:16.753Z,28.5
2022-09-09T01:53:18.958Z,28.5
2022-09-09T01:54:20.869Z,28.5
2022-09-09T01:55:23.342Z,28.5
2022-09-09T01:56:25.838Z,28.5
2022-09-09T01:57:28.035Z,28.5
2022-09-09T01:58:31.538Z,28.5
2022-09-09T01:59:33.564Z,28.5
2022-09-09T02:00:36.039Z,28.5
2022-09-09T02:01:38.589Z,28.5
2022-09-09T02:02:41.539Z,28.5
2022-09-09T02:03:43.913Z,28.5
2022-09-09T02:04:45.829Z,28.5
2022-09-09T02:05:48.323Z,28.5
2022-09-09T02:06:50.810Z,28.5
2022-09-09T02:07:53.040Z,28.5
2022-09-09T02:08:54.951Z,28.4
2022-09-09T02:09:57.426Z,28.5
2022-09-09T02:10:59.900Z,28.5
2022-09-09T02:12:01.837Z,28.5
2022-09-09T02:13:04.315Z,28.5
2022-09-09T02:14:06.525Z,28.4
2022-09-09T02:15:09.023Z,28.4
2022-09-09T02:16:11.663Z,28.4
2022-09-09T02:17:14.287Z,28.4
2022-09-09T02:18:16.498Z,28.5
2022-09-09T02:19:18.719Z,28.4
2022-09-09T02:20:21.181Z,28.4
2022-09-09T02:21:23.367Z,28.4
2022-09-09T02:22:25.883Z,28.4
2022-09-09T02:23:28.252Z,28.4
2022-09-09T02:24:30.269Z,28.4
2022-09-09T02:25:32.473Z,28.4
2022-09-09T02:26:34.967Z,28.4
2022-09-09T02:27:37.476Z,28.4
2022-09-09T02:28:39.965Z,28.4
2022-09-09T02:29:42.464Z,28.4
2022-09-09T02:30:44.941Z,28.4
2022-09-09T02:31:47.347Z,28.4
2022-09-09T02:32:49.833Z,28.4
2022-09-09T02:33:51.779Z,28.4
2022-09-09T02:34:54.271Z,28.4
2022-09-09T02:35:56.440Z,28.4
2022-09-09T02:36:58.079Z,28.4
2022-09-09T02:38:00.577Z,28.4
2022-09-09T02:39:02.801Z,28.4
2022-09-09T02:40:05.624Z,28.4
2022-09-09T02:41:07.953Z,28.4
2022-09-09T02:42:10.456Z,28.4
2022-09-09T02:43:12.647Z,28.4
2022-09-09T02:44:15.119Z,28.4
2022-09-09T02:45:17.337Z,28.4
2022-09-09T02:46:20.072Z,28.4
2022-09-09T02:47:22.501Z,28.4
2022-09-09T02:48:24.993Z,28.4
2022-09-09T02:49:27.478Z,28.4
2022-09-09T02:50:29.420Z,28.4
2022-09-09T02:51:31.899Z,28.4
2022-09-09T02:52:34.402Z,28.4
2022-09-09T02:53:36.627Z,28.4
2022-09-09T02:54:39.120Z,28.4
2022-09-09T02:55:41.374Z,28.4
2022-09-09T02:56:43.577Z,28.4
2022-09-09T02:57:46.048Z,28.4
2022-09-09T02:58:47.966Z,28.4
2022-09-09T02:59:50.431Z,28.4
2022-09-09T03:00:53.152Z,28.4
2022-09-09T03:01:55.981Z,28.4
2022-09-09T03:02:58.579Z,28.4
2022-09-09T03:04:00.790Z,28.4
2022-09-09T03:05:03.029Z,28.4
2022-09-09T03:06:05.548Z,28.4
2022-09-09T03:07:07.721Z,28.4
2022-09-09T03:08:10.204Z,28.4
2022-09-09T03:09:12.690Z,28.4
2022-09-09T03:10:15.184Z,28.4
2022-09-09T03:11:17.666Z,28.4
2022-09-09T03:12:20.164Z,28.4
2022-09-09T03:13:22.649Z,28.4
2022-09-09T03:14:25.124Z,28.4
2022-09-09T03:15:27.625Z,28.4
2022-09-09T03:16:30.368Z,28.4
2022-09-09T03:17:32.688Z,28.4
2022-09-09T03:18:35.626Z,28.4
2022-09-09T03:19:38.229Z,28.4
2022-09-09T03:20:40.724Z,28.4
2022-09-09T03:21:42.928Z,28.4
2022-09-09T03:22:45.401Z,28.4
2022-09-09T03:23:47.584Z,28.4
2022-09-09T03:24:50.065Z,28.4
2022-09-09T03:25:52.301Z,28.4
2022-09-09T03:26:54.801Z,28.4
2022-09-09T03:27:56.993Z,28.4
2022-09-09T03:28:59.102Z,28.4
2022-09-09T03:30:01.406Z,28.4
2022-09-09T03:31:03.588Z,28.4
2022-09-09T03:32:06.400Z,28.4
2022-09-09T03:33:09.111Z,28.4
2022-09-09T03:34:11.576Z,28.4
2022-09-09T03:35:13.772Z,28.4
2022-09-09T03:36:15.990Z,28.4
2022-09-09T03:37:17.947Z,28.4
2022-09-09T03:38:20.423Z,28.4
2022-09-09T03:39:22.900Z,28.4
2022-09-09T03:40:25.390Z,28.4
2022-09-09T03:41:27.615Z,28.4
2022-09-09T03:42:29.811Z,28.4
2022-09-09T03:43:32.017Z,28.4
2022-09-09T03:44:34.215Z,28.4
2022-09-09T03:45:36.844Z,28.4
2022-09-09T03:46:39.187Z,28.4
2022-09-09T03:47:41.659Z,28.4
2022-09-09T03:48:44.152Z,28.4
2022-09-09T03:49:46.627Z,28.4
2022-09-09T03:50:48.833Z,28.4
2022-09-09T03:51:51.325Z,28.4
2022-09-09T03:52:53.822Z,28.4
2022-09-09T03:53:56.291Z,28.4
2022-09-09T03:54:58.777Z,28.4
2022-09-09T03:56:01.157Z,28.4
2022-09-09T03:57:03.685Z,28.4
2022-09-09T03:58:05.856Z,28.4
2022-09-09T03:59:08.074Z,28.4
2022-09-09T04:00:10.282Z,28.4
2022-09-09T04:01:12.444Z,28.4
2022-09-09T04:02:15.124Z,28.4
2022-09-09T04:03:17.835Z,28.4
2022-09-09T04:04:20.304Z,28.4
2022-09-09T04:05:22.782Z,28.4
2022-09-09T04:06:25.260Z,28.3
2022-09-09T04:07:27.770Z,28.4
2022-09-09T04:08:30.357Z,28.3
2022-09-09T04:09:32.834Z,28.3
2022-09-09T04:10:35.040Z,28.3
2022-09-09T04:11:37.544Z,28.3
2022-09-09T04:12:39.777Z,28.3
2022-09-09T04:13:42.255Z,28.3
2022-09-09T04:14:44.722Z,28.3
2022-09-09T04:15:47.191Z,28.3
2022-09-09T04:16:49.595Z,28.3
2022-09-09T04:17:51.910Z,28.3
2022-09-09T04:18:54.406Z,28.3
2022-09-09T04:19:56.928Z,28.3
2022-09-09T04:20:59.400Z,28.3
2022-09-09T04:22:01.892Z,28.3
2022-09-09T04:23:04.391Z,28.3
2022-09-09T04:24:06.635Z,28.3
2022-09-09T04:25:08.825Z,28.3
2022-09-09T04:26:11.318Z,28.3
2022-09-09T04:27:13.824Z,28.3
2022-09-09T04:28:16.327Z,28.3
2022-09-09T04:29:18.519Z,28.3
2022-09-09T04:30:21.005Z,28.3
2022-09-09T04:31:23.773Z,28.3
2022-09-09T04:32:26.378Z,28.3
2022-09-09T04:33:28.837Z,28.3
2022-09-09T04:34:31.338Z,28.3
2022-09-09T04:35:33.816Z,28.3
2022-09-09T04:36:36.299Z,28.3
2022-09-09T04:37:38.488Z,28.3
2022-09-09T04:38:40.995Z,28.3
2022-09-09T04:39:43.698Z,28.3
2022-09-09T04:40:46.415Z,28.3
2022-09-09T04:41:48.334Z,28.3
2022-09-09T04:42:50.547Z,28.3
2022-09-09T04:43:53.041Z,28.3
2022-09-09T04:44:55.513Z,28.3
2022-09-09T04:45:58.037Z,28.3
2022-09-09T04:47:00.461Z,28.3
2022-09-09T04:48:02.938Z,28.3
2022-09-09T04:49:05.103Z,28.3
2022-09-09T04:50:07.325Z,28.3
2022-09-09T04:51:09.524Z,28.3
2022-09-09T04:52:12.001Z,28.3
2022-09-09T04:53:14.500Z,28.3
2022-09-09T04:54:16.721Z,28.3
2022-09-09T04:55:18.642Z,28.3
2022-09-09T04:56:20.568Z,28.3
2022-09-09T04:57:22.744Z,28.3
2022-09-09T04:58:25.243Z,28.3
2022-09-09T04:59:27.731Z,28.3
2022-09-09T05:00:30.333Z,28.3
2022-09-09T05:01:33.018Z,28.3
2022-09-09T05:02:35.689Z,28.3
2022-09-09T05:03:37.478Z,28.3
2022-09-09T05:04:39.403Z,28.3
2022-09-09T05:05:41.617Z,28.3
2022-09-09T05:06:43.821Z,28.3
2022-09-09T05:07:46.035Z,28.3
2022-09-09T05:08:48.520Z,28.3
2022-09-09T05:09:50.722Z,28.3
2022-09-09T05:10:52.951Z,28.3
2022-09-09T05:11:55.126Z,28.3
2022-09-09T05:12:57.601Z,28.3
2022-09-09T05:13:59.804Z,28.3
2022-09-09T05:15:02.028Z,28.3
2022-09-09T05:16:04.426Z,28.3
2022-09-09T05:17:07.221Z,28.3
2022-09-09T05:18:09.417Z,28.3
2022-09-09T05:19:11.891Z,28.3
2022-09-09T05:21:19.088Z,28.3
2022-09-09T05:22:21.281Z,28.3
2022-09-09T05:23:23.751Z,28.3
2022-09-09T05:24:26.225Z,28.3
2022-09-09T05:25:28.155Z,28.3
2022-09-09T05:26:29.802Z,28.3
2022-09-09T05:27:31.767Z,28.3
2022-09-09T05:28:34.445Z,28.3
2022-09-09T05:29:37.054Z,28.3
2022-09-09T05:30:39.553Z,28.3
2022-09-09T05:31:42.452Z,28.3
2022-09-09T05:32:45.197Z,28.3
2022-09-09T05:33:47.393Z,28.3
2022-09-09T05:34:49.598Z,28.3
2022-09-09T05:35:52.083Z,28.3
2022-09-09T05:36:54.573Z,28.3
2022-09-09T05:37:56.780Z,28.3
2022-09-09T05:38:58.984Z,28.3
2022-09-09T05:40:01.410Z,28.3
2022-09-09T05:41:03.800Z,28.3
2022-09-09T05:42:06.299Z,28.3
2022-09-09T05:43:08.487Z,28.3
2022-09-09T05:44:10.427Z,28.3
2022-09-09T05:45:12.932Z,28.3
2022-09-09T05:46:15.451Z,28.3
2022-09-09T05:47:17.920Z,28.3
2022-09-09T05:48:20.423Z,28.3
2022-09-09T05:49:22.621Z,28.3
2022-09-09T05:50:29.783Z,28.3
2022-09-09T05:51:32.445Z,28.3
2022-09-09T05:52:34.687Z,28.3
2022-09-09T05:53:36.892Z,28.3
2022-09-09T05:54:39.413Z,28.3
2022-09-09T05:55:41.886Z,28.3
2022-09-09T05:56:44.101Z,28.3
2022-09-09T05:57:50.585Z,28.3
2022-09-09T05:58:53.049Z,28.3
2022-09-09T05:59:55.325Z,28.3
2022-09-09T06:00:57.536Z,28.3
2022-09-09T06:02:00.362Z,28.3
2022-09-09T06:03:03.063Z,28.3
2022-09-09T06:04:06.029Z,28.3
2022-09-09T06:05:08.202Z,28.3
2022-09-09T06:06:10.682Z,28.3
2022-09-09T06:07:13.151Z,28.3
2022-09-09T06:08:15.356Z,28.3
2022-09-09T06:09:17.834Z,28.3
2022-09-09T06:10:20.044Z,28.3
2022-09-09T06:11:22.260Z,28.3
2022-09-09T06:12:24.204Z,28.3
2022-09-09T06:13:25.877Z,28.3
2022-09-09T06:14:28.361Z,28.3
2022-09-09T06:15:30.833Z,28.3
2022-09-09T06:16:33.848Z,28.3
2022-09-09T06:17:36.624Z,28.3
2022-09-09T06:18:38.960Z,28.3
2022-09-09T06:19:41.431Z,28.3
2022-09-09T06:20:43.912Z,28.3
2022-09-09T06:21:46.379Z,28.3
2022-09-09T06:22:48.855Z,28.3
2022-09-09T06:23:51.341Z,28.3
2022-09-09T06:24:53.619Z,28.3
2022-09-09T06:25:55.273Z,28.3
2022-09-09T06:26:57.771Z,28.3
2022-09-09T06:28:00.253Z,28.3
2022-09-09T06:29:02.760Z,28.3
2022-09-09T06:30:04.953Z,28.3
2022-09-09T06:31:07.299Z,28.3
2022-09-09T06:32:09.707Z,28.3
2022-09-09T06:33:12.204Z,28.3
2022-09-09T06:34:13.828Z,28.3
2022-09-09T06:35:16.320Z,28.3
2022-09-09T06:36:18.797Z,28.3
2022-09-09T06:37:21.222Z,28.3
2022-09-09T06:38:23.421Z,28.3
2022-09-09T06:39:25.919Z,28.3
2022-09-09T06:40:28.115Z,28.3
2022-09-09T06:41:30.605Z,28.3
2022-09-09T06:42:32.795Z,28.3
2022-09-09T06:43:35.302Z,28.3
2022-09-09T06:44:37.281Z,28.3
2022-09-09T06:45:39.483Z,28.3
2022-09-09T06:46:42.008Z,28.3
2022-09-09T06:47:44.829Z,28.3
2022-09-09T06:48:47.326Z,28.3
2022-09-09T06:49:49.322Z,28.3
2022-09-09T06:50:51.525Z,28.3
2022-09-09T06:51:55.179Z,28.3
2022-09-09T06:52:57.664Z,28.3
2022-09-09T06:53:59.859Z,28.2
2022-09-09T06:55:02.342Z,28.3
2022-09-09T06:56:04.289Z,28.2
2022-09-09T06:58:11.497Z,28.2
2022-09-09T06:59:13.699Z,28.2
2022-09-09T07:00:15.683Z,28.2
2022-09-09T07:01:17.631Z,28.2
2022-09-09T07:02:20.600Z,28.2
2022-09-09T07:03:23.198Z,28.2
2022-09-09T07:04:24.882Z,28.2
2022-09-09T07:05:26.817Z,28.2
2022-09-09T07:06:28.744Z,28.2
2022-09-09T07:07:30.398Z,28.2
2022-09-09T07:08:32.960Z,28.2
2022-09-09T07:09:35.635Z,28.2
2022-09-09T07:10:38.130Z,28.2
2022-09-09T07:11:40.607Z,28.2
2022-09-09T07:12:42.825Z,28.2
2022-09-09T07:13:45.318Z,28.2
2022-09-09T07:14:47.540Z,28.2
2022-09-09T07:15:50.177Z,28.2
2022-09-09T07:18:00.204Z,28.2
2022-09-09T07:19:02.725Z,28.2
2022-09-09T07:20:05.212Z,28.2
2022-09-09T07:21:07.110Z,28.2
2022-09-09T07:22:09.319Z,28.2
2022-09-09T07:23:11.804Z,28.2
2022-09-09T07:24:14.813Z,28.2
2022-09-09T07:25:17.040Z,28.2
2022-09-09T07:26:19.574Z,28.2
2022-09-09T07:27:21.502Z,28.2
2022-09-09T07:28:23.755Z,28.2
2022-09-09T07:29:26.221Z,28.2
2022-09-09T07:30:29.117Z,28.2
2022-09-09T07:31:31.982Z,28.2
2022-09-09T07:32:34.694Z,28.2
2022-09-09T07:33:37.418Z,28.2
2022-09-09T07:34:40.021Z,28.2
2022-09-09T07:35:42.235Z,28.2
2022-09-09T07:36:44.435Z,28.2
2022-09-09T07:38:51.630Z,28.2
2022-09-09T07:39:54.342Z,28.2
2022-09-09T07:40:57.011Z,28.2
2022-09-09T07:41:59.549Z,28.2
2022-09-09T07:43:01.483Z,28.2
2022-09-09T07:44:03.684Z,28.2
2022-09-09T07:45:05.897Z,28.2
2022-09-09T07:46:08.548Z,28.2
2022-09-09T07:47:10.987Z,28.2
2022-09-09T07:48:13.454Z,28.2
2022-09-09T07:49:15.658Z,28.2
2022-09-09T07:50:17.898Z,28.2
2022-09-09T07:51:20.383Z,28.2
2022-09-09T07:52:22.975Z,28.2
2022-09-09T07:53:25.469Z,28.2
2022-09-09T07:54:27.707Z,28.2
2022-09-09T07:55:30.183Z,28.2
2022-09-09T07:56:34.637Z,28.2
2022-09-09T07:57:51.625Z,28.2
2022-09-09T07:58:54.136Z,28.2
2022-09-09T07:59:56.611Z,28.2
2022-09-09T08:00:59.082Z,28.2
2022-09-09T08:02:01.796Z,28.2
2022-09-09T08:03:04.402Z,28.2
2022-09-09T08:04:06.683Z,28.2
2022-09-09T08:05:09.167Z,28.2
2022-09-09T08:06:11.651Z,28.2
2022-09-09T08:07:13.867Z,28.2
2022-09-09T08:08:15.796Z,28.2
2022-09-09T08:09:18.278Z,28.2
2022-09-09T08:10:20.578Z,28.2
2022-09-09T08:11:22.787Z,28.2
2022-09-09T08:12:25.264Z,28.2
2022-09-09T08:13:27.760Z,28.2
2022-09-09T08:14:30.095Z,28.2
2022-09-09T08:15:32.590Z,28.2
2022-09-09T08:16:35.072Z,28.2
2022-09-09T08:17:37.296Z,28.2
2022-09-09T08:18:39.522Z,28.2
2022-09-09T08:19:41.993Z,28.2
2022-09-09T08:20:43.916Z,28.2
2022-09-09T08:21:46.427Z,28.2
2022-09-09T08:22:48.422Z,28.2
2022-09-09T08:24:55.908Z,28.2
2022-09-09T08:25:58.098Z,28.2
2022-09-09T08:27:00.584Z,28.2
2022-09-09T08:28:03.004Z,28.2
2022-09-09T08:29:05.482Z,28.2
2022-09-09T08:30:07.994Z,28.2
2022-09-09T08:31:10.846Z,28.2
2022-09-09T08:32:13.697Z,28.2
2022-09-09T08:33:16.205Z,28.2
2022-09-09T08:34:18.459Z,28.2
2022-09-09T08:35:20.676Z,28.2
2022-09-09T08:36:23.188Z,28.2
2022-09-09T08:37:25.698Z,28.2
2022-09-09T08:38:27.972Z,28.2
2022-09-09T08:39:30.518Z,28.2
2022-09-09T08:40:33.093Z,28.2
2022-09-09T08:41:35.311Z,28.2
2022-09-09T08:42:37.786Z,28.2
2022-09-09T08:43:39.725Z,28.2
2022-09-09T08:45:46.939Z,28.2
2022-09-09T08:46:49.201Z,28.2
2022-09-09T08:47:51.902Z,28.2
2022-09-09T08:48:54.107Z,28.2
2022-09-09T08:49:56.368Z,28.2
2022-09-09T08:50:58.869Z,28.2
2022-09-09T08:52:01.354Z,28.2
2022-09-09T08:53:03.897Z,28.2
2022-09-09T08:54:06.424Z,28.2
2022-09-09T08:55:08.652Z,28.2
2022-09-09T08:56:11.167Z,28.2
2022-09-09T08:57:13.694Z,28.2
2022-09-09T08:58:15.915Z,28.2
2022-09-09T08:59:18.404Z,28.2
2022-09-09T09:00:20.584Z,28.2
2022-09-09T09:01:23.056Z,28.2
2022-09-09T09:02:25.522Z,28.2
2022-09-09T09:03:28.141Z,28.2
2022-09-09T09:04:30.648Z,28.2
2022-09-09T09:05:33.112Z,28.2
2022-09-09T09:06:35.391Z,28.2
2022-09-09T09:07:37.583Z,28.2
2022-09-09T09:08:40.097Z,28.2
2022-09-09T09:09:42.334Z,28.2
2022-09-09T09:10:44.921Z,28.2
2022-09-09T09:11:47.121Z,28.2
2022-09-09T09:12:49.319Z,28.2
2022-09-09T09:13:51.542Z,28.2
2022-09-09T09:14:54.045Z,28.2
2022-09-09T09:15:55.789Z,28.2
2022-09-09T09:16:57.864Z,28.2
2022-09-09T09:18:00.346Z,28.2
2022-09-09T09:19:02.258Z,28.2
2022-09-09T09:20:04.780Z,28.2
2022-09-09T09:21:06.474Z,28.2
2022-09-09T09:22:08.956Z,28.2
2022-09-09T09:23:11.435Z,28.2
2022-09-09T09:24:13.661Z,28.2
2022-09-09T09:25:19.852Z,28.2
2022-09-09T09:26:22.431Z,28.2
2022-09-09T09:27:24.687Z,28.2
2022-09-09T09:28:26.872Z,28.2
2022-09-09T09:29:29.381Z,28.2
2022-09-09T09:30:32.062Z,28.2
2022-09-09T09:31:34.388Z,28.2
2022-09-09T09:32:36.726Z,28.2
2022-09-09T09:33:39.305Z,28.2
2022-09-09T09:34:41.248Z,28.2
2022-09-09T09:35:45.524Z,28.2
2022-09-09T09:36:47.794Z,28.2
2022-09-09T09:41:05.532Z,28.2
2022-09-09T09:42:08.031Z,28.2
2022-09-09T09:43:10.273Z,28.2
2022-09-09T09:44:12.742Z,28.2
2022-09-09T09:45:14.688Z,28.2
2022-09-09T09:46:19.432Z,28.2
2022-09-09T09:47:22.577Z,28.2
2022-09-09T09:48:25.078Z,28.2
2022-09-09T09:49:27.254Z,28.2
2022-09-09T09:50:29.187Z,28.2
2022-09-09T09:51:31.150Z,28.2
2022-09-09T09:52:33.693Z,28.2
2022-09-09T09:53:35.659Z,28.2
2022-09-09T09:54:37.761Z,28.2
2022-09-09T09:55:40.295Z,28.2
2022-09-09T09:56:42.886Z,28.2
2022-09-09T09:57:45.568Z,28.2
2022-09-09T09:58:47.545Z,28.2
2022-09-09T09:59:49.748Z,28.2
2022-09-09T10:00:51.705Z,28.2
2022-09-09T10:01:53.872Z,28.2
2022-09-09T10:02:56.303Z,28.2
2022-09-09T10:03:58.847Z,28.2
2022-09-09T10:05:01.570Z,28.2
2022-09-09T10:06:04.036Z,28.2
2022-09-09T10:07:06.263Z,28.2
2022-09-09T10:08:08.205Z,28.2
2022-09-09T10:09:10.399Z,28.2
2022-09-09T10:10:13.123Z,28.2
2022-09-09T10:11:15.330Z,28.2
2022-09-09T10:12:17.611Z,28.2
2022-09-09T10:13:19.915Z,28.2
2022-09-09T10:14:22.403Z,28.2
2022-09-09T10:15:24.600Z,28.2
2022-09-09T10:16:26.838Z,28.2
2022-09-09T10:17:29.060Z,28.2
2022-09-09T10:18:31.544Z,28.2
2022-09-09T10:19:34.201Z,28.2
2022-09-09T10:20:36.407Z,28.2
2022-09-09T10:21:38.878Z,28.2
2022-09-09T10:22:41.419Z,28.2
2022-09-09T10:23:43.674Z,28.2
2022-09-09T10:24:46.205Z,28.2
2022-09-09T10:25:48.711Z,28.2
2022-09-09T10:26:51.191Z,28.2
2022-09-09T10:28:58.751Z,28.2
2022-09-09T10:30:01.043Z,28.2
2022-09-09T10:31:03.736Z,28.2
2022-09-09T10:32:06.393Z,28.2
2022-09-09T10:34:11.377Z,28.2
2022-09-09T10:35:13.597Z,28.2
2022-09-09T10:36:15.807Z,28.2
2022-09-09T10:37:18.292Z,28.2
2022-09-09T10:38:20.526Z,28.2
2022-09-09T10:39:22.756Z,28.2
2022-09-09T10:40:25.467Z,28.2
2022-09-09T10:41:27.634Z,28.2
2022-09-09T10:42:30.109Z,28.2
2022-09-09T10:43:32.384Z,28.2
2022-09-09T10:44:35.073Z,28.2
2022-09-09T10:45:37.565Z,28.2
2022-09-09T10:46:39.379Z,28.2
2022-09-09T10:47:41.561Z,28.2
2022-09-09T10:48:43.745Z,28.2
2022-09-09T10:49:45.938Z,28.2
2022-09-09T10:51:53.432Z,28.2
2022-09-09T10:52:55.633Z,28.2
2022-09-09T10:53:58.142Z,28.2
2022-09-09T10:55:00.098Z,28.2
2022-09-09T10:56:02.309Z,28.2
2022-09-09T10:57:04.511Z,28.2
2022-09-09T10:58:06.713Z,28.2
2022-09-09T10:59:09.189Z,28.2
2022-09-09T11:00:11.687Z,28.2
2022-09-09T11:01:14.048Z,28.2
2022-09-09T11:02:16.418Z,28.2
2022-09-09T11:03:18.337Z,28.2
2022-09-09T11:04:20.709Z,28.2
2022-09-09T11:05:23.281Z,28.2
2022-09-09T11:06:25.923Z,28.2
2022-09-09T11:07:28.586Z,28.2
2022-09-09T11:08:31.074Z,28.2
2022-09-09T11:09:33.316Z,28.2
2022-09-09T11:10:35.544Z,28.2
2022-09-09T11:11:38.021Z,28.2
2022-09-09T11:12:39.953Z,28.2
2022-09-09T11:13:42.443Z,28.2
2022-09-09T11:14:44.923Z,28.2
2022-09-09T11:15:47.417Z,28.2
2022-09-09T11:16:50.184Z,28.2
2022-09-09T11:17:52.272Z,28.2
2022-09-09T11:18:54.754Z,28.2
2022-09-09T11:19:57.235Z,28.2
2022-09-09T11:20:59.456Z,28.2
2022-09-09T11:22:01.378Z,28.2
2022-09-09T11:23:03.882Z,28.2
2022-09-09T11:24:06.402Z,28.2
2022-09-09T11:25:08.942Z,28.2
2022-09-09T11:26:11.387Z,28.2
2022-09-09T11:27:13.965Z,28.2
2022-09-09T11:28:16.487Z,28.2
2022-09-09T11:29:19.345Z,28.2
2022-09-09T11:31:26.782Z,28.2
2022-09-09T11:32:29.389Z,28.2
2022-09-09T11:33:31.865Z,28.2
2022-09-09T11:35:39.278Z,28.2
2022-09-09T11:36:41.625Z,28.2
2022-09-09T11:37:44.124Z,28.2
2022-09-09T11:38:46.610Z,28.2
2022-09-09T11:39:48.980Z,28.2
2022-09-09T11:40:51.619Z,28.2
2022-09-09T11:41:53.560Z,28.2
2022-09-09T11:42:55.481Z,28.2
2022-09-09T11:43:57.975Z,28.2
2022-09-09T11:45:00.243Z,28.2
2022-09-09T11:46:02.867Z,28.2
2022-09-09T11:47:05.413Z,28.2
2022-09-09T11:48:08.088Z,28.2
2022-09-09T11:49:10.278Z,28.2
2022-09-09T11:50:12.493Z,28.2
2022-09-09T11:52:19.958Z,28.2
2022-09-09T11:53:22.457Z,28.2
2022-09-09T11:54:24.935Z,28.2
2022-09-09T11:55:27.418Z,28.2
2022-09-09T11:56:29.944Z,28.2
2022-09-09T11:57:32.158Z,28.2
2022-09-09T11:58:49.014Z,28.2
2022-09-09T11:59:52.607Z,28.2
2022-09-09T12:00:54.817Z,28.2
2022-09-09T12:01:57.220Z,28.2
2022-09-09T12:03:00.321Z,28.2
2022-09-09T12:04:02.950Z,28.2
2022-09-09T12:05:05.448Z,28.2
2022-09-09T12:06:08.072Z,28.2
2022-09-09T12:07:10.627Z,28.2
2022-09-09T12:08:12.850Z,28.2
2022-09-09T12:09:15.362Z,28.2
2022-09-09T12:10:17.853Z,28.2
2022-09-09T12:11:19.780Z,28.2
2022-09-09T12:12:21.461Z,28.2
2022-09-09T12:13:23.980Z,28.2
2022-09-09T12:14:26.451Z,28.2
2022-09-09T12:15:28.668Z,28.2
2022-09-09T12:16:31.311Z,28.2
2022-09-09T12:17:33.787Z,28.2
2022-09-09T12:18:36.394Z,28.2
2022-09-09T12:19:38.529Z,28.2
2022-09-09T12:20:40.981Z,28.2
2022-09-09T12:21:42.930Z,28.2
2022-09-09T12:22:45.166Z,28.2
2022-09-09T12:23:47.369Z,28.2
2022-09-09T12:24:49.342Z,28.2
2022-09-09T12:25:51.285Z,28.2
2022-09-09T12:26:53.783Z,28.2
2022-09-09T12:27:55.719Z,28.2
2022-09-09T12:28:58.262Z,28.2
2022-09-09T12:30:00.782Z,28.2
2022-09-09T12:31:03.645Z,28.2
2022-09-09T12:32:06.428Z,28.2
2022-09-09T12:33:08.644Z,28.2
2022-09-09T12:34:11.535Z,28.2
2022-09-09T12:35:13.760Z,28.2
2022-09-09T12:36:16.245Z,28.2
2022-09-09T12:37:18.463Z,28.2
2022-09-09T12:38:21.927Z,28.2
2022-09-09T12:39:25.851Z,28.2
2022-09-09T12:40:28.057Z,28.2
2022-09-09T12:41:30.274Z,28.2
2022-09-09T12:42:32.497Z,28.2
2022-09-09T12:43:39.649Z,28.2
2022-09-09T12:44:41.871Z,28.2
2022-09-09T12:45:44.485Z,28.2
2022-09-09T12:46:47.677Z,28.2
2022-09-09T12:47:50.298Z,28.2
2022-09-09T12:48:52.498Z,28.2
2022-09-09T12:49:54.735Z,28.2
2022-09-09T12:50:57.014Z,28.2
2022-09-09T12:51:59.226Z,28.2
2022-09-09T12:53:01.701Z,28.2
2022-09-09T12:54:03.912Z,28.2
2022-09-09T12:55:05.836Z,28.2
2022-09-09T12:56:08.359Z,28.2
2022-09-09T12:57:10.598Z,28.2
2022-09-09T12:58:12.795Z,28.2
2022-09-09T12:59:14.749Z,28.2
2022-09-09T13:00:17.877Z,28.2
2022-09-09T13:01:21.693Z,28.2
2022-09-09T13:02:24.401Z,28.2
2022-09-09T13:03:27.069Z,28.2
2022-09-09T13:04:28.993Z,28.2
2022-09-09T13:05:31.225Z,28.2
2022-09-09T13:06:33.471Z,28.2
2022-09-09T13:07:35.680Z,28.2
2022-09-09T13:08:37.841Z,28.2
2022-09-09T13:09:40.389Z,28.2
2022-09-09T13:11:47.893Z,28.2
2022-09-09T13:12:50.359Z,28.2
2022-09-09T13:13:52.576Z,28.2
2022-09-09T13:14:54.782Z,28.2
2022-09-09T13:15:57.015Z,28.2
2022-09-09T13:16:59.742Z,28.2
2022-09-09T13:18:02.424Z,28.2
2022-09-09T13:19:04.357Z,28.2
2022-09-09T13:20:06.833Z,28.2
2022-09-09T13:21:08.785Z,28.2
2022-09-09T13:22:11.286Z,28.2
2022-09-09T13:23:13.541Z,28.2
2022-09-09T13:24:15.735Z,28.2
2022-09-09T13:25:17.928Z,28.2
2022-09-09T13:26:20.110Z,28.2
2022-09-09T13:27:22.309Z,28.2
2022-09-09T13:28:24.510Z,28.2
2022-09-09T13:29:26.420Z,28.2
2022-09-09T13:30:28.711Z,28.2
2022-09-09T13:31:31.385Z,28.2
2022-09-09T13:32:33.866Z,28.2
2022-09-09T13:33:36.661Z,28.2
2022-09-09T13:34:39.519Z,28.2
2022-09-09T13:35:41.999Z,28.2
2022-09-09T13:36:44.500Z,28.2
2022-09-09T13:37:47.104Z,28.2
2022-09-09T13:38:49.612Z,28.2
2022-09-09T13:39:51.882Z,28.2
2022-09-09T13:40:54.181Z,28.2
2022-09-09T13:41:56.381Z,28.2
2022-09-09T13:42:58.883Z,28.2
2022-09-09T13:44:01.064Z,28.2
2022-09-09T13:45:03.546Z,28.2
2022-09-09T13:46:05.873Z,28.2
2022-09-09T13:48:13.571Z,28.2
2022-09-09T13:49:16.034Z,28.2
2022-09-09T13:50:18.510Z,28.2
2022-09-09T13:51:20.989Z,28.2
2022-09-09T13:52:23.511Z,28.2
2022-09-09T13:53:25.743Z,28.2
2022-09-09T13:54:28.216Z,28.2
2022-09-09T13:55:30.714Z,28.2
2022-09-09T13:56:33.188Z,28.2
2022-09-09T13:57:35.669Z,28.2
2022-09-09T13:58:38.161Z,28.2
2022-09-09T14:00:45.873Z,28.2
2022-09-09T14:01:48.342Z,28.2
2022-09-09T14:02:50.272Z,28.2
2022-09-09T14:03:52.225Z,28.2
2022-09-09T14:04:54.694Z,28.2
2022-09-09T14:05:57.158Z,28.2
2022-09-09T14:06:59.652Z,28.2
2022-09-09T14:08:01.876Z,28.2
2022-09-09T14:09:04.085Z,28.2
2022-09-09T14:10:06.287Z,28.2
2022-09-09T14:11:08.462Z,28.2